sensor_id;sensor_type;location;lat;lon;timestamp;temperature;humidity
17815;DHT22;9031;50.974;11.330;2023-02-15T00:01:30;0.60;99.90
17815;DHT22;9031;50.974;11.330;2023-02-15T00:03:55;0.70;99.90
17815;DHT22;9031;50.974;11.330;2023-02-15T00:06:21;0.70;99.90
17815;DHT22;9031;50.974;11.330;2023-02-15T00:08:47;0.70;99.90
17815;DHT22;9031;50.974;11.330;2023-02-15T00:11:15;0.60;99.90
17815;DHT22;9031;50.974;11.330;2023-02-15T00:13:41;0.50;99.90
17815;DHT22;9031;50.974;11.330;2023-02-15T00:16:12;0.50;99.90
17815;DHT22;9031;50.974;11.330;2023-02-15T00:18:38;0.60;99.90
17815;DHT22;9031;50.974;11.330;2023-02-15T00:21:09;0.50;99.90
17815;DHT22;9031;50.974;11.330;2023-02-15T00:23:36;0.60;99.90
17815;DHT22;9031;50.974;11.330;2023-02-15T00:26:09;0.60;99.90
17815;DHT22;9031;50.974;11.330;2023-02-15T00:28:35;0.50;99.90
17815;DHT22;9031;50.974;11.330;2023-02-15T00:31:06;0.50;99.90
17815;DHT22;9031;50.974;11.330;2023-02-15T00:33:32;0.60;99.90
17815;DHT22;9031;50.974;11.330;2023-02-15T00:35:59;0.60;99.90
17815;DHT22;9031;50.974;11.330;2023-02-15T00:38:26;0.70;99.90
17815;DHT22;9031;50.974;11.330;2023-02-15T00:40:53;0.70;99.90
17815;DHT22;9031;50.974;11.330;2023-02-15T00:43:18;0.70;99.90
17815;DHT22;9031;50.974;11.330;2023-02-15T00:45:45;0.70;99.90
17815;DHT22;9031;50.974;11.330;2023-02-15T00:48:11;0.60;99.90
17815;DHT22;9031;50.974;11.330;2023-02-15T00:50:36;0.70;99.90
17815;DHT22;9031;50.974;11.330;2023-02-15T00:53:02;0.60;99.90
17815;DHT22;9031;50.974;11.330;2023-02-15T00:55:27;0.60;99.90
17815;DHT22;9031;50.974;11.330;2023-02-15T00:57:53;0.40;99.90
17815;DHT22;9031;50.974;11.330;2023-02-15T01:00:18;0.40;99.90
17815;DHT22;9031;50.974;11.330;2023-02-15T01:02:44;0.40;99.90
17815;DHT22;9031;50.974;11.330;2023-02-15T01:05:09;0.50;99.90
17815;DHT22;9031;50.974;11.330;2023-02-15T01:07:35;0.50;99.90
17815;DHT22;9031;50.974;11.330;2023-02-15T01:10:00;0.50;99.90
17815;DHT22;9031;50.974;11.330;2023-02-15T01:12:26;0.60;99.90
17815;DHT22;9031;50.974;11.330;2023-02-15T01:14:51;0.60;99.90
17815;DHT22;9031;50.974;11.330;2023-02-15T01:17:17;0.60;99.90
17815;DHT22;9031;50.974;11.330;2023-02-15T01:19:42;0.70;99.90
17815;DHT22;9031;50.974;11.330;2023-02-15T01:22:08;0.70;99.90
17815;DHT22;9031;50.974;11.330;2023-02-15T01:24:33;0.70;99.90
17815;DHT22;9031;50.974;11.330;2023-02-15T01:26:59;0.60;99.90
17815;DHT22;9031;50.974;11.330;2023-02-15T01:29:24;0.70;99.90
17815;DHT22;9031;50.974;11.330;2023-02-15T01:31:50;0.70;99.90
17815;DHT22;9031;50.974;11.330;2023-02-15T01:34:16;0.70;99.90
17815;DHT22;9031;50.974;11.330;2023-02-15T01:36:41;0.60;99.90
17815;DHT22;9031;50.974;11.330;2023-02-15T01:39:06;0.60;99.90
17815;DHT22;9031;50.974;11.330;2023-02-15T01:41:33;0.70;99.90
17815;DHT22;9031;50.974;11.330;2023-02-15T01:44:00;0.80;99.90
17815;DHT22;9031;50.974;11.330;2023-02-15T01:46:40;0.80;99.90
17815;DHT22;9031;50.974;11.330;2023-02-15T01:49:17;0.80;99.90
17815;DHT22;9031;50.974;11.330;2023-02-15T01:51:45;0.80;99.90
17815;DHT22;9031;50.974;11.330;2023-02-15T01:54:25;0.80;99.90
17815;DHT22;9031;50.974;11.330;2023-02-15T01:56:56;0.80;99.90
17815;DHT22;9031;50.974;11.330;2023-02-15T01:59:23;0.80;99.90
17815;DHT22;9031;50.974;11.330;2023-02-15T02:01:52;0.80;99.90
17815;DHT22;9031;50.974;11.330;2023-02-15T02:04:35;0.90;99.90
17815;DHT22;9031;50.974;11.330;2023-02-15T02:07:04;0.90;99.90
17815;DHT22;9031;50.974;11.330;2023-02-15T02:09:30;1.00;99.90
17815;DHT22;9031;50.974;11.330;2023-02-15T02:11:56;1.00;99.90
17815;DHT22;9031;50.974;11.330;2023-02-15T02:14:22;1.00;99.90
17815;DHT22;9031;50.974;11.330;2023-02-15T02:26:15;0.80;99.90
17815;DHT22;9031;50.974;11.330;2023-02-15T02:31:39;0.60;99.90
17815;DHT22;9031;50.974;11.330;2023-02-15T02:34:32;0.30;99.90
17815;DHT22;9031;50.974;11.330;2023-02-15T02:37:28;0.30;99.90
17815;DHT22;9031;50.974;11.330;2023-02-15T02:40:08;0.40;99.90
17815;DHT22;9031;50.974;11.330;2023-02-15T02:42:40;0.10;99.90
17815;DHT22;9031;50.974;11.330;2023-02-15T02:45:10;-0.30;99.90
17815;DHT22;9031;50.974;11.330;2023-02-15T02:50:35;-0.10;99.90
17815;DHT22;9031;50.974;11.330;2023-02-15T02:52:59;-0.10;99.90
17815;DHT22;9031;50.974;11.330;2023-02-15T03:00:39;0.30;99.90
17815;DHT22;9031;50.974;11.330;2023-02-15T03:03:28;0.10;99.90
17815;DHT22;9031;50.974;11.330;2023-02-15T03:05:58;-0.20;99.90
17815;DHT22;9031;50.974;11.330;2023-02-15T03:08:32;-0.20;99.90
17815;DHT22;9031;50.974;11.330;2023-02-15T03:11:02;-0.30;99.90
17815;DHT22;9031;50.974;11.330;2023-02-15T03:13:29;-0.30;99.90
17815;DHT22;9031;50.974;11.330;2023-02-15T03:15:55;-0.60;99.90
17815;DHT22;9031;50.974;11.330;2023-02-15T03:18:44;-0.70;99.90
17815;DHT22;9031;50.974;11.330;2023-02-15T03:21:20;-0.80;99.90
17815;DHT22;9031;50.974;11.330;2023-02-15T03:23:54;-0.60;99.90
17815;DHT22;9031;50.974;11.330;2023-02-15T03:26:21;-0.60;99.90
17815;DHT22;9031;50.974;11.330;2023-02-15T03:28:50;-0.70;99.90
17815;DHT22;9031;50.974;11.330;2023-02-15T03:31:18;-0.80;99.90
17815;DHT22;9031;50.974;11.330;2023-02-15T03:33:55;-1.00;99.90
17815;DHT22;9031;50.974;11.330;2023-02-15T03:39:20;-1.20;99.90
17815;DHT22;9031;50.974;11.330;2023-02-15T03:41:54;-1.20;99.90
17815;DHT22;9031;50.974;11.330;2023-02-15T03:44:28;-1.20;99.90
17815;DHT22;9031;50.974;11.330;2023-02-15T03:47:10;-1.20;99.90
17815;DHT22;9031;50.974;11.330;2023-02-15T03:49:45;-1.20;99.90
17815;DHT22;9031;50.974;11.330;2023-02-15T03:52:14;-1.30;99.90
17815;DHT22;9031;50.974;11.330;2023-02-15T03:54:41;-1.30;99.90
17815;DHT22;9031;50.974;11.330;2023-02-15T03:57:13;-1.20;99.90
17815;DHT22;9031;50.974;11.330;2023-02-15T03:59:58;-1.20;99.90
17815;DHT22;9031;50.974;11.330;2023-02-15T04:02:56;-1.00;99.90
17815;DHT22;9031;50.974;11.330;2023-02-15T04:05:24;-0.70;99.90
17815;DHT22;9031;50.974;11.330;2023-02-15T04:07:50;-0.90;99.90
17815;DHT22;9031;50.974;11.330;2023-02-15T04:10:15;-1.20;99.90
17815;DHT22;9031;50.974;11.330;2023-02-15T04:12:59;-1.20;99.90
17815;DHT22;9031;50.974;11.330;2023-02-15T04:15:25;-1.30;99.90
17815;DHT22;9031;50.974;11.330;2023-02-15T04:18:09;-1.40;99.90
17815;DHT22;9031;50.974;11.330;2023-02-15T04:20:34;-1.50;99.90
17815;DHT22;9031;50.974;11.330;2023-02-15T04:23:18;-1.60;99.90
17815;DHT22;9031;50.974;11.330;2023-02-15T04:26:04;-1.60;99.90
17815;DHT22;9031;50.974;11.330;2023-02-15T04:28:32;-1.60;99.90
17815;DHT22;9031;50.974;11.330;2023-02-15T04:30:58;-1.60;99.90
17815;DHT22;9031;50.974;11.330;2023-02-15T04:33:23;-1.60;99.90
17815;DHT22;9031;50.974;11.330;2023-02-15T04:35:49;-1.60;99.90
17815;DHT22;9031;50.974;11.330;2023-02-15T04:38:14;-1.60;99.90
17815;DHT22;9031;50.974;11.330;2023-02-15T04:40:40;-1.50;99.90
17815;DHT22;9031;50.974;11.330;2023-02-15T04:43:05;-1.50;99.90
17815;DHT22;9031;50.974;11.330;2023-02-15T04:45:31;-1.50;99.90
17815;DHT22;9031;50.974;11.330;2023-02-15T04:47:56;-1.40;99.90
17815;DHT22;9031;50.974;11.330;2023-02-15T04:50:22;-1.40;99.90
17815;DHT22;9031;50.974;11.330;2023-02-15T04:52:47;-1.30;99.90
17815;DHT22;9031;50.974;11.330;2023-02-15T04:55:13;-1.30;99.90
17815;DHT22;9031;50.974;11.330;2023-02-15T04:57:39;-1.20;99.90
17815;DHT22;9031;50.974;11.330;2023-02-15T05:00:05;-1.00;99.90
17815;DHT22;9031;50.974;11.330;2023-02-15T05:02:31;-1.00;99.90
17815;DHT22;9031;50.974;11.330;2023-02-15T05:04:56;-0.80;99.90
17815;DHT22;9031;50.974;11.330;2023-02-15T05:07:22;-0.60;99.90
17815;DHT22;9031;50.974;11.330;2023-02-15T05:09:47;-0.60;99.90
17815;DHT22;9031;50.974;11.330;2023-02-15T05:12:13;-0.40;99.90
17815;DHT22;9031;50.974;11.330;2023-02-15T05:14:38;-0.40;99.90
17815;DHT22;9031;50.974;11.330;2023-02-15T05:17:04;-0.40;99.90
17815;DHT22;9031;50.974;11.330;2023-02-15T05:19:30;-0.50;99.90
17815;DHT22;9031;50.974;11.330;2023-02-15T05:21:56;-0.40;99.90
17815;DHT22;9031;50.974;11.330;2023-02-15T05:24:21;-0.60;99.90
17815;DHT22;9031;50.974;11.330;2023-02-15T05:27:06;-0.70;99.90
17815;DHT22;9031;50.974;11.330;2023-02-15T05:29:50;-0.80;99.90
17815;DHT22;9031;50.974;11.330;2023-02-15T05:32:15;-0.80;99.90
17815;DHT22;9031;50.974;11.330;2023-02-15T05:34:41;-0.70;99.90
17815;DHT22;9031;50.974;11.330;2023-02-15T05:37:06;-0.60;99.90
17815;DHT22;9031;50.974;11.330;2023-02-15T05:39:33;-0.50;99.90
17815;DHT22;9031;50.974;11.330;2023-02-15T05:41:59;-0.30;99.90
17815;DHT22;9031;50.974;11.330;2023-02-15T05:44:25;-0.30;99.90
17815;DHT22;9031;50.974;11.330;2023-02-15T05:46:50;-0.30;99.90
17815;DHT22;9031;50.974;11.330;2023-02-15T05:49:16;-0.30;99.90
17815;DHT22;9031;50.974;11.330;2023-02-15T05:51:41;-0.10;99.90
17815;DHT22;9031;50.974;11.330;2023-02-15T05:54:07;-0.10;99.90
17815;DHT22;9031;50.974;11.330;2023-02-15T05:56:32;-0.10;99.90
17815;DHT22;9031;50.974;11.330;2023-02-15T05:58:58;-0.10;99.90
17815;DHT22;9031;50.974;11.330;2023-02-15T06:01:23;-0.10;99.90
17815;DHT22;9031;50.974;11.330;2023-02-15T06:03:49;-0.10;99.90
17815;DHT22;9031;50.974;11.330;2023-02-15T06:06:15;0.00;99.90
17815;DHT22;9031;50.974;11.330;2023-02-15T06:08:40;-0.10;99.90
17815;DHT22;9031;50.974;11.330;2023-02-15T06:11:06;-0.30;99.90
17815;DHT22;9031;50.974;11.330;2023-02-15T06:13:33;-0.50;99.90
17815;DHT22;9031;50.974;11.330;2023-02-15T06:15:59;-0.70;99.90
17815;DHT22;9031;50.974;11.330;2023-02-15T06:18:24;-0.90;99.90
17815;DHT22;9031;50.974;11.330;2023-02-15T06:20:50;-1.20;99.90
17815;DHT22;9031;50.974;11.330;2023-02-15T06:23:16;-1.40;99.90
17815;DHT22;9031;50.974;11.330;2023-02-15T06:25:42;-1.30;99.90
17815;DHT22;9031;50.974;11.330;2023-02-15T06:28:07;-1.20;99.90
17815;DHT22;9031;50.974;11.330;2023-02-15T06:30:33;-1.10;99.90
17815;DHT22;9031;50.974;11.330;2023-02-15T06:32:59;-1.30;99.90
17815;DHT22;9031;50.974;11.330;2023-02-15T06:35:24;-1.60;99.90
17815;DHT22;9031;50.974;11.330;2023-02-15T06:37:50;-1.90;99.90
17815;DHT22;9031;50.974;11.330;2023-02-15T06:40:16;-2.00;99.90
17815;DHT22;9031;50.974;11.330;2023-02-15T06:42:42;-2.00;99.90
17815;DHT22;9031;50.974;11.330;2023-02-15T06:45:08;-2.00;99.90
17815;DHT22;9031;50.974;11.330;2023-02-15T06:47:34;-2.00;99.90
17815;DHT22;9031;50.974;11.330;2023-02-15T06:49:59;-2.00;99.90
17815;DHT22;9031;50.974;11.330;2023-02-15T06:52:25;-2.10;99.90
17815;DHT22;9031;50.974;11.330;2023-02-15T06:54:50;-2.00;99.90
17815;DHT22;9031;50.974;11.330;2023-02-15T06:57:16;-2.00;99.90
17815;DHT22;9031;50.974;11.330;2023-02-15T06:59:41;-2.10;99.90
17815;DHT22;9031;50.974;11.330;2023-02-15T07:02:08;-2.00;99.90
17815;DHT22;9031;50.974;11.330;2023-02-15T07:04:34;-2.00;99.90
17815;DHT22;9031;50.974;11.330;2023-02-15T07:07:00;-1.80;99.90
17815;DHT22;9031;50.974;11.330;2023-02-15T07:09:25;-1.70;99.90
17815;DHT22;9031;50.974;11.330;2023-02-15T07:11:51;-1.60;99.90
17815;DHT22;9031;50.974;11.330;2023-02-15T07:14:35;-1.60;99.90
17815;DHT22;9031;50.974;11.330;2023-02-15T07:17:00;-1.60;99.90
17815;DHT22;9031;50.974;11.330;2023-02-15T07:19:26;-1.60;99.90
17815;DHT22;9031;50.974;11.330;2023-02-15T07:21:51;-1.40;99.90
17815;DHT22;9031;50.974;11.330;2023-02-15T07:24:17;-1.40;99.90
17815;DHT22;9031;50.974;11.330;2023-02-15T07:26:43;-1.10;99.90
17815;DHT22;9031;50.974;11.330;2023-02-15T07:29:08;-1.10;99.90
17815;DHT22;9031;50.974;11.330;2023-02-15T07:31:34;-1.10;99.90
17815;DHT22;9031;50.974;11.330;2023-02-15T07:34:00;-1.00;99.90
17815;DHT22;9031;50.974;11.330;2023-02-15T07:36:25;-0.70;99.90
17815;DHT22;9031;50.974;11.330;2023-02-15T07:38:51;-0.40;99.90
17815;DHT22;9031;50.974;11.330;2023-02-15T07:41:16;-0.20;99.90
17815;DHT22;9031;50.974;11.330;2023-02-15T07:43:43;0.00;99.90
17815;DHT22;9031;50.974;11.330;2023-02-15T07:46:14;0.10;99.90
17815;DHT22;9031;50.974;11.330;2023-02-15T07:48:41;0.30;99.90
17815;DHT22;9031;50.974;11.330;2023-02-15T07:51:08;0.40;99.90
17815;DHT22;9031;50.974;11.330;2023-02-15T07:53:35;0.50;99.90
17815;DHT22;9031;50.974;11.330;2023-02-15T07:56:02;0.70;99.90
17815;DHT22;9031;50.974;11.330;2023-02-15T07:58:28;0.80;99.90
17815;DHT22;9031;50.974;11.330;2023-02-15T08:01:13;0.90;99.90
17815;DHT22;9031;50.974;11.330;2023-02-15T08:03:39;1.10;99.90
17815;DHT22;9031;50.974;11.330;2023-02-15T08:06:05;1.20;99.90
17815;DHT22;9031;50.974;11.330;2023-02-15T08:08:30;1.30;99.90
17815;DHT22;9031;50.974;11.330;2023-02-15T08:13:50;1.90;99.90
17815;DHT22;9031;50.974;11.330;2023-02-15T08:16:23;2.10;99.90
17815;DHT22;9031;50.974;11.330;2023-02-15T08:18:49;2.10;99.90
17815;DHT22;9031;50.974;11.330;2023-02-15T08:21:15;2.20;99.90
17815;DHT22;9031;50.974;11.330;2023-02-15T08:23:41;2.50;99.90
17815;DHT22;9031;50.974;11.330;2023-02-15T08:26:06;2.80;99.90
17815;DHT22;9031;50.974;11.330;2023-02-15T08:28:32;2.90;99.90
17815;DHT22;9031;50.974;11.330;2023-02-15T08:31:11;2.90;99.90
17815;DHT22;9031;50.974;11.330;2023-02-15T08:33:38;3.00;99.90
17815;DHT22;9031;50.974;11.330;2023-02-15T08:36:05;3.10;99.90
17815;DHT22;9031;50.974;11.330;2023-02-15T08:38:32;3.10;99.90
17815;DHT22;9031;50.974;11.330;2023-02-15T08:40:58;3.20;99.90
17815;DHT22;9031;50.974;11.330;2023-02-15T08:43:33;3.20;99.90
17815;DHT22;9031;50.974;11.330;2023-02-15T08:45:58;3.20;99.90
17815;DHT22;9031;50.974;11.330;2023-02-15T08:48:24;3.40;99.90
17815;DHT22;9031;50.974;11.330;2023-02-15T08:50:49;3.70;99.90
17815;DHT22;9031;50.974;11.330;2023-02-15T08:53:15;3.90;99.90
17815;DHT22;9031;50.974;11.330;2023-02-15T08:55:40;4.20;99.90
17815;DHT22;9031;50.974;11.330;2023-02-15T08:58:06;4.30;99.90
17815;DHT22;9031;50.974;11.330;2023-02-15T09:00:31;4.30;99.90
17815;DHT22;9031;50.974;11.330;2023-02-15T09:02:57;4.20;99.90
17815;DHT22;9031;50.974;11.330;2023-02-15T09:05:22;4.20;99.90
17815;DHT22;9031;50.974;11.330;2023-02-15T09:07:48;4.30;99.90
17815;DHT22;9031;50.974;11.330;2023-02-15T09:10:13;4.30;99.90
17815;DHT22;9031;50.974;11.330;2023-02-15T09:12:39;4.40;99.90
17815;DHT22;9031;50.974;11.330;2023-02-15T09:15:05;4.80;99.90
17815;DHT22;9031;50.974;11.330;2023-02-15T09:17:30;5.20;99.90
17815;DHT22;9031;50.974;11.330;2023-02-15T09:19:56;5.40;99.90
17815;DHT22;9031;50.974;11.330;2023-02-15T09:22:22;5.60;99.90
17815;DHT22;9031;50.974;11.330;2023-02-15T09:24:47;5.50;99.90
17815;DHT22;9031;50.974;11.330;2023-02-15T09:27:13;5.50;99.90
17815;DHT22;9031;50.974;11.330;2023-02-15T09:29:38;5.30;99.90
17815;DHT22;9031;50.974;11.330;2023-02-15T09:32:04;5.20;99.90
17815;DHT22;9031;50.974;11.330;2023-02-15T09:34:30;5.10;99.90
17815;DHT22;9031;50.974;11.330;2023-02-15T09:36:56;5.00;99.90
17815;DHT22;9031;50.974;11.330;2023-02-15T09:39:25;5.10;99.90
17815;DHT22;9031;50.974;11.330;2023-02-15T09:45:07;5.50;99.90
17815;DHT22;9031;50.974;11.330;2023-02-15T09:56:31;5.30;99.90
17815;DHT22;9031;50.974;11.330;2023-02-15T10:04:27;5.90;99.90
17815;DHT22;9031;50.974;11.330;2023-02-15T10:15:14;7.50;99.90
17815;DHT22;9031;50.974;11.330;2023-02-15T10:18:06;7.70;99.90
17815;DHT22;9031;50.974;11.330;2023-02-15T10:21:30;8.10;99.90
17815;DHT22;9031;50.974;11.330;2023-02-15T10:26:20;8.90;99.90
17815;DHT22;9031;50.974;11.330;2023-02-15T10:28:51;8.90;99.90
17815;DHT22;9031;50.974;11.330;2023-02-15T10:31:27;9.50;99.90
17815;DHT22;9031;50.974;11.330;2023-02-15T10:39:47;11.20;99.90
17815;DHT22;9031;50.974;11.330;2023-02-15T10:47:38;13.70;99.90
17815;DHT22;9031;50.974;11.330;2023-02-15T10:58:13;15.50;99.90
17815;DHT22;9031;50.974;11.330;2023-02-15T11:01:13;16.70;99.90
17815;DHT22;9031;50.974;11.330;2023-02-15T11:06:44;17.60;99.90
17815;DHT22;9031;50.974;11.330;2023-02-15T11:09:14;18.00;99.90
17815;DHT22;9031;50.974;11.330;2023-02-15T11:11:46;19.50;99.90
17815;DHT22;9031;50.974;11.330;2023-02-15T11:17:02;21.90;99.90
17815;DHT22;9031;50.974;11.330;2023-02-15T11:19:32;22.90;99.90
17815;DHT22;9031;50.974;11.330;2023-02-15T11:22:04;23.80;99.90
17815;DHT22;9031;50.974;11.330;2023-02-15T11:24:32;24.70;98.80
17815;DHT22;9031;50.974;11.330;2023-02-15T11:27:19;24.20;97.30
17815;DHT22;9031;50.974;11.330;2023-02-15T11:30:04;24.70;96.70
17815;DHT22;9031;50.974;11.330;2023-02-15T11:32:37;24.90;95.10
17815;DHT22;9031;50.974;11.330;2023-02-15T11:37:47;25.90;94.20
17815;DHT22;9031;50.974;11.330;2023-02-15T11:40:24;25.30;92.90
17815;DHT22;9031;50.974;11.330;2023-02-15T11:42:53;24.40;93.70
17815;DHT22;9031;50.974;11.330;2023-02-15T11:45:29;24.40;93.90
17815;DHT22;9031;50.974;11.330;2023-02-15T11:47:57;24.90;93.30
17815;DHT22;9031;50.974;11.330;2023-02-15T11:50:25;25.00;92.50
17815;DHT22;9031;50.974;11.330;2023-02-15T11:52:54;25.50;92.30
17815;DHT22;9031;50.974;11.330;2023-02-15T11:55:22;26.00;92.00
17815;DHT22;9031;50.974;11.330;2023-02-15T11:57:59;26.80;89.50
17815;DHT22;9031;50.974;11.330;2023-02-15T12:02:53;26.40;85.30
17815;DHT22;9031;50.974;11.330;2023-02-15T12:05:23;25.00;87.40
17815;DHT22;9031;50.974;11.330;2023-02-15T12:07:53;24.50;88.70
17815;DHT22;9031;50.974;11.330;2023-02-15T12:10:27;24.30;89.70
17815;DHT22;9031;50.974;11.330;2023-02-15T12:13:13;23.90;90.20
17815;DHT22;9031;50.974;11.330;2023-02-15T12:15:46;25.20;89.00
17815;DHT22;9031;50.974;11.330;2023-02-15T12:18:42;26.00;88.20
17815;DHT22;9031;50.974;11.330;2023-02-15T12:21:31;26.20;86.80
17815;DHT22;9031;50.974;11.330;2023-02-15T12:26:40;27.40;86.60
17815;DHT22;9031;50.974;11.330;2023-02-15T12:29:16;28.70;82.80
17815;DHT22;9031;50.974;11.330;2023-02-15T12:31:45;27.40;83.20
17815;DHT22;9031;50.974;11.330;2023-02-15T12:34:21;26.50;84.90
17815;DHT22;9031;50.974;11.330;2023-02-15T12:36:49;26.50;84.50
17815;DHT22;9031;50.974;11.330;2023-02-15T12:39:21;27.00;85.00
17815;DHT22;9031;50.974;11.330;2023-02-15T12:44:25;29.00;81.80
17815;DHT22;9031;50.974;11.330;2023-02-15T12:49:37;28.40;82.50
17815;DHT22;9031;50.974;11.330;2023-02-15T12:52:04;28.10;82.10
17815;DHT22;9031;50.974;11.330;2023-02-15T12:54:41;27.70;83.30
17815;DHT22;9031;50.974;11.330;2023-02-15T12:57:31;27.70;82.80
17815;DHT22;9031;50.974;11.330;2023-02-15T12:59:59;28.40;82.00
17815;DHT22;9031;50.974;11.330;2023-02-15T13:02:36;28.00;82.00
17815;DHT22;9031;50.974;11.330;2023-02-15T13:08:02;26.00;83.80
17815;DHT22;9031;50.974;11.330;2023-02-15T13:10:35;24.00;87.80
17815;DHT22;9031;50.974;11.330;2023-02-15T13:13:00;22.50;90.30
17815;DHT22;9031;50.974;11.330;2023-02-15T13:15:29;21.40;91.70
17815;DHT22;9031;50.974;11.330;2023-02-15T13:17:57;20.10;92.90
17815;DHT22;9031;50.974;11.330;2023-02-15T13:20:24;19.80;93.80
17815;DHT22;9031;50.974;11.330;2023-02-15T13:22:56;19.80;93.50
17815;DHT22;9031;50.974;11.330;2023-02-15T13:25:25;19.30;94.50
17815;DHT22;9031;50.974;11.330;2023-02-15T13:27:55;18.90;95.40
17815;DHT22;9031;50.974;11.330;2023-02-15T13:30:25;18.20;95.90
17815;DHT22;9031;50.974;11.330;2023-02-15T13:33:19;17.40;97.20
17815;DHT22;9031;50.974;11.330;2023-02-15T13:41:19;16.80;99.30
17815;DHT22;9031;50.974;11.330;2023-02-15T13:52:21;16.90;99.80
17815;DHT22;9031;50.974;11.330;2023-02-15T13:58:02;16.10;99.90
17815;DHT22;9031;50.974;11.330;2023-02-15T14:00:52;15.20;99.90
17815;DHT22;9031;50.974;11.330;2023-02-15T14:09:05;13.90;99.90
17815;DHT22;9031;50.974;11.330;2023-02-15T14:23:22;15.30;99.90
17815;DHT22;9031;50.974;11.330;2023-02-15T14:25:59;15.40;99.90
17815;DHT22;9031;50.974;11.330;2023-02-15T14:28:35;16.30;99.90
17815;DHT22;9031;50.974;11.330;2023-02-15T14:31:06;16.10;99.90
17815;DHT22;9031;50.974;11.330;2023-02-15T14:33:42;15.70;99.90
17815;DHT22;9031;50.974;11.330;2023-02-15T14:36:12;15.90;99.90
17815;DHT22;9031;50.974;11.330;2023-02-15T14:42:15;16.10;99.90
17815;DHT22;9031;50.974;11.330;2023-02-15T14:44:48;16.10;99.90
17815;DHT22;9031;50.974;11.330;2023-02-15T14:47:42;15.70;99.90
17815;DHT22;9031;50.974;11.330;2023-02-15T14:53:22;16.70;99.90
17815;DHT22;9031;50.974;11.330;2023-02-15T14:58:37;15.50;99.90
17815;DHT22;9031;50.974;11.330;2023-02-15T15:01:07;15.10;99.90
17815;DHT22;9031;50.974;11.330;2023-02-15T15:03:34;15.30;99.90
17815;DHT22;9031;50.974;11.330;2023-02-15T15:06:03;15.50;99.90
17815;DHT22;9031;50.974;11.330;2023-02-15T15:08:33;15.20;99.90
17815;DHT22;9031;50.974;11.330;2023-02-15T15:13:59;15.50;99.90
17815;DHT22;9031;50.974;11.330;2023-02-15T15:18:53;16.10;99.90
17815;DHT22;9031;50.974;11.330;2023-02-15T15:36:02;13.60;99.90
17815;DHT22;9031;50.974;11.330;2023-02-15T15:46:36;13.30;99.90
17815;DHT22;9031;50.974;11.330;2023-02-15T15:49:12;13.20;99.90
17815;DHT22;9031;50.974;11.330;2023-02-15T15:51:40;12.90;99.90
17815;DHT22;9031;50.974;11.330;2023-02-15T15:54:16;12.50;99.90
17815;DHT22;9031;50.974;11.330;2023-02-15T15:56:46;12.20;99.90
17815;DHT22;9031;50.974;11.330;2023-02-15T15:59:26;11.90;99.90
17815;DHT22;9031;50.974;11.330;2023-02-15T16:01:53;11.60;99.90
17815;DHT22;9031;50.974;11.330;2023-02-15T16:04:30;11.40;99.90
17815;DHT22;9031;50.974;11.330;2023-02-15T16:07:42;11.10;99.90
17815;DHT22;9031;50.974;11.330;2023-02-15T16:10:00;10.90;99.90
17815;DHT22;9031;50.974;11.330;2023-02-15T16:12:33;10.80;99.90
17815;DHT22;9031;50.974;11.330;2023-02-15T16:15:14;10.60;99.90
17815;DHT22;9031;50.974;11.330;2023-02-15T16:17:41;10.40;99.90
17815;DHT22;9031;50.974;11.330;2023-02-15T16:20:16;10.20;99.90
17815;DHT22;9031;50.974;11.330;2023-02-15T16:28:11;9.70;99.90
17815;DHT22;9031;50.974;11.330;2023-02-15T16:30:38;9.50;99.90
17815;DHT22;9031;50.974;11.330;2023-02-15T16:33:14;9.40;99.90
17815;DHT22;9031;50.974;11.330;2023-02-15T16:35:56;9.30;99.90
17815;DHT22;9031;50.974;11.330;2023-02-15T16:41:13;9.20;99.90
17815;DHT22;9031;50.974;11.330;2023-02-15T16:43:43;9.00;99.90
17815;DHT22;9031;50.974;11.330;2023-02-15T16:46:38;9.00;99.90
17815;DHT22;9031;50.974;11.330;2023-02-15T16:49:06;8.70;99.90
17815;DHT22;9031;50.974;11.330;2023-02-15T16:51:36;8.50;99.90
17815;DHT22;9031;50.974;11.330;2023-02-15T16:54:16;8.20;99.90
17815;DHT22;9031;50.974;11.330;2023-02-15T16:56:43;8.10;99.90
17815;DHT22;9031;50.974;11.330;2023-02-15T17:02:05;8.00;99.90
17815;DHT22;9031;50.974;11.330;2023-02-15T17:04:31;8.00;99.90
17815;DHT22;9031;50.974;11.330;2023-02-15T17:09:31;8.00;99.90
17815;DHT22;9031;50.974;11.330;2023-02-15T17:11:57;7.90;99.90
17815;DHT22;9031;50.974;11.330;2023-02-15T17:14:31;7.80;99.90
17815;DHT22;9031;50.974;11.330;2023-02-15T17:17:05;7.60;99.90
17815;DHT22;9031;50.974;11.330;2023-02-15T17:19:40;7.50;99.90
17815;DHT22;9031;50.974;11.330;2023-02-15T17:22:20;7.40;99.90
17815;DHT22;9031;50.974;11.330;2023-02-15T17:24:47;7.30;99.90
17815;DHT22;9031;50.974;11.330;2023-02-15T17:27:20;7.20;99.90
17815;DHT22;9031;50.974;11.330;2023-02-15T17:29:51;7.00;99.90
17815;DHT22;9031;50.974;11.330;2023-02-15T17:32:28;6.90;99.90
17815;DHT22;9031;50.974;11.330;2023-02-15T17:34:59;6.80;99.90
17815;DHT22;9031;50.974;11.330;2023-02-15T17:37:44;6.70;99.90
17815;DHT22;9031;50.974;11.330;2023-02-15T17:42:49;6.50;99.90
17815;DHT22;9031;50.974;11.330;2023-02-15T17:45:15;6.50;99.90
17815;DHT22;9031;50.974;11.330;2023-02-15T17:47:41;6.40;99.90
17815;DHT22;9031;50.974;11.330;2023-02-15T17:50:14;6.30;99.90
17815;DHT22;9031;50.974;11.330;2023-02-15T17:52:40;6.30;99.90
17815;DHT22;9031;50.974;11.330;2023-02-15T17:55:14;6.20;99.90
17815;DHT22;9031;50.974;11.330;2023-02-15T17:57:58;6.20;99.90
17815;DHT22;9031;50.974;11.330;2023-02-15T18:00:23;6.10;99.90
17815;DHT22;9031;50.974;11.330;2023-02-15T18:03:09;6.00;99.90
17815;DHT22;9031;50.974;11.330;2023-02-15T18:05:54;5.90;99.90
17815;DHT22;9031;50.974;11.330;2023-02-15T18:08:38;5.90;99.90
17815;DHT22;9031;50.974;11.330;2023-02-15T18:11:22;5.90;99.90
17815;DHT22;9031;50.974;11.330;2023-02-15T18:14:04;5.90;99.90
17815;DHT22;9031;50.974;11.330;2023-02-15T18:16:33;5.80;99.90
17815;DHT22;9031;50.974;11.330;2023-02-15T18:18:59;5.90;99.90
17815;DHT22;9031;50.974;11.330;2023-02-15T18:21:25;5.80;99.90
17815;DHT22;9031;50.974;11.330;2023-02-15T18:23:50;5.70;99.90
17815;DHT22;9031;50.974;11.330;2023-02-15T18:26:20;5.60;99.90
17815;DHT22;9031;50.974;11.330;2023-02-15T18:28:46;5.50;99.90
17815;DHT22;9031;50.974;11.330;2023-02-15T18:31:11;5.40;99.90
17815;DHT22;9031;50.974;11.330;2023-02-15T18:33:41;5.40;99.90
17815;DHT22;9031;50.974;11.330;2023-02-15T18:36:14;5.40;99.90
17815;DHT22;9031;50.974;11.330;2023-02-15T18:38:41;5.30;99.90
17815;DHT22;9031;50.974;11.330;2023-02-15T18:41:08;5.20;99.90
17815;DHT22;9031;50.974;11.330;2023-02-15T18:43:39;5.20;99.90
17815;DHT22;9031;50.974;11.330;2023-02-15T18:46:04;5.20;99.90
17815;DHT22;9031;50.974;11.330;2023-02-15T18:48:30;5.20;99.90
17815;DHT22;9031;50.974;11.330;2023-02-15T18:50:55;5.10;99.90
17815;DHT22;9031;50.974;11.330;2023-02-15T18:53:21;5.10;99.90
17815;DHT22;9031;50.974;11.330;2023-02-15T18:55:47;4.90;99.90
17815;DHT22;9031;50.974;11.330;2023-02-15T18:58:19;4.90;99.90
17815;DHT22;9031;50.974;11.330;2023-02-15T19:00:45;4.70;99.90